createdAt,value
2019-01-20T00:00:16.530Z,55.33
2019-01-20T00:02:45.077Z,56.30
2019-01-20T00:05:14.356Z,56.57
2019-01-20T00:07:42.849Z,55.83
2019-01-20T00:10:13.047Z,56.43
2019-01-20T00:12:41.582Z,58.10
2019-01-20T00:15:16.463Z,56.33
2019-01-20T00:17:45.091Z,56.80
2019-01-20T00:20:14.550Z,57.47
2019-01-20T00:22:44.939Z,57.30
2019-01-20T00:25:13.394Z,55.07
2019-01-20T00:27:42.090Z,56.33
2019-01-20T00:30:13.522Z,55.90
2019-01-20T00:32:42.079Z,54.77
2019-01-20T00:35:12.400Z,56.20
2019-01-20T00:37:40.957Z,56.33
2019-01-20T00:40:14.992Z,55.47
2019-01-20T00:42:43.525Z,54.60
2019-01-20T00:45:14.889Z,54.97
2019-01-20T00:47:45.491Z,57.03
2019-01-20T00:50:17.422Z,53.67
2019-01-20T00:52:45.950Z,60.77
2019-01-20T00:55:16.796Z,54.53
2019-01-20T00:57:45.742Z,52.50
2019-01-20T01:00:26.789Z,55.03
2019-01-20T01:02:58.200Z,51.33
2019-01-20T01:05:27.214Z,54.23
2019-01-20T01:07:56.712Z,55.73
2019-01-20T01:10:26.530Z,55.00
2019-01-20T01:12:55.721Z,56.80
2019-01-20T01:15:27.370Z,54.73
2019-01-20T01:17:56.080Z,55.00
2019-01-20T01:20:24.888Z,55.97
2019-01-20T01:22:55.586Z,55.07
2019-01-20T01:25:23.917Z,52.33
2019-01-20T01:27:52.602Z,52.33
2019-01-20T01:30:23.471Z,49.23
2019-01-20T01:32:52.253Z,48.57
2019-01-20T01:35:20.801Z,50.37
2019-01-20T01:37:49.406Z,53.33
2019-01-20T01:40:19.011Z,55.90
2019-01-20T01:42:48.544Z,54.90
2019-01-20T01:45:18.972Z,54.43
2019-01-20T01:47:47.578Z,55.30
2019-01-20T01:50:17.055Z,52.70
2019-01-20T01:52:45.565Z,54.60
2019-01-20T01:55:14.152Z,54.53
2019-01-20T01:57:45.874Z,53.73
2019-01-20T02:00:17.352Z,52.70
2019-01-20T02:02:45.874Z,53.50
2019-01-20T02:05:14.895Z,51.10
2019-01-20T02:07:43.412Z,51.37
2019-01-20T02:10:14.898Z,51.93
2019-01-20T02:12:43.531Z,51.47
2019-01-20T02:15:14.236Z,51.53
2019-01-20T02:17:43.106Z,50.03
2019-01-20T02:20:19.950Z,50.53
2019-01-20T02:22:48.435Z,48.67
2019-01-20T02:25:16.963Z,50.33
2019-01-20T02:27:45.564Z,48.93
2019-01-20T02:30:24.446Z,53.27
2019-01-20T02:32:52.945Z,51.30
2019-01-20T02:35:21.910Z,51.10
2019-01-20T02:37:50.320Z,51.37
2019-01-20T02:40:19.130Z,48.40
2019-01-20T02:42:47.669Z,50.23
2019-01-20T02:45:16.722Z,49.20
2019-01-20T02:47:45.260Z,52.20
2019-01-20T02:50:15.924Z,52.33
2019-01-20T02:52:44.592Z,49.37
2019-01-20T02:55:13.270Z,53.90
2019-01-20T02:57:44.804Z,56.60
2019-01-20T03:00:22.580Z,60.03
2019-01-20T03:02:51.191Z,62.43
2019-01-20T03:05:20.840Z,65.07
2019-01-20T03:07:49.331Z,68.03
2019-01-20T03:10:17.860Z,67.73
2019-01-20T03:12:46.384Z,64.53
2019-01-20T03:15:15.031Z,70.27
2019-01-20T03:17:43.709Z,70.23
2019-01-20T03:20:18.362Z,74.20
2019-01-20T03:22:47.232Z,73.37
2019-01-20T03:25:16.654Z,72.20
2019-01-20T03:27:45.180Z,71.10
2019-01-20T03:30:19.266Z,70.30
2019-01-20T03:32:47.833Z,68.53
2019-01-20T03:35:18.671Z,70.30
2019-01-20T03:37:47.409Z,69.73
2019-01-20T03:40:18.616Z,76.07
2019-01-20T03:42:47.321Z,69.70
2019-01-20T03:45:19.990Z,72.10
2019-01-20T03:47:48.666Z,72.83
2019-01-20T03:50:18.003Z,81.50
2019-01-20T03:52:46.621Z,78.57
2019-01-20T03:55:16.902Z,77.00
2019-01-20T03:57:45.345Z,77.13
2019-01-20T04:00:19.331Z,82.17
2019-01-20T04:02:50.516Z,84.70
2019-01-20T04:05:19.035Z,83.47
2019-01-20T04:07:47.502Z,79.73
2019-01-20T04:10:16.594Z,75.17
2019-01-20T04:12:45.142Z,74.63
2019-01-20T04:15:16.688Z,75.23
2019-01-20T04:17:45.148Z,75.03
2019-01-20T04:22:42.132Z,72.73
2019-01-20T04:25:16.465Z,72.80
2019-01-20T04:27:45.199Z,71.53
2019-01-20T04:30:15.702Z,72.67
2019-01-20T04:32:44.302Z,77.10
2019-01-20T04:35:12.849Z,76.10
2019-01-20T04:37:41.478Z,81.17
2019-01-20T04:40:15.925Z,84.53
2019-01-20T04:42:44.458Z,82.07
2019-01-20T04:45:14.484Z,85.60
2019-01-20T04:47:43.138Z,81.33
2019-01-20T04:50:17.190Z,85.37
2019-01-20T04:52:45.703Z,81.43
2019-01-20T04:55:15.110Z,84.43
2019-01-20T04:57:45.283Z,83.07
2019-01-20T05:00:19.271Z,86.83
2019-01-20T05:02:47.984Z,87.17
2019-01-20T05:05:16.865Z,86.27
2019-01-20T05:07:45.440Z,86.83
2019-01-20T05:10:15.857Z,85.67
2019-01-20T05:12:44.742Z,86.73
2019-01-20T05:15:20.746Z,89.93
2019-01-20T05:17:49.183Z,92.23
2019-01-20T05:20:17.912Z,92.10
2019-01-20T05:22:46.616Z,91.60
2019-01-20T05:25:15.244Z,91.57
2019-01-20T05:27:43.908Z,95.70
2019-01-20T05:30:14.939Z,95.50
2019-01-20T05:32:43.665Z,97.30
2019-01-20T05:35:12.345Z,98.37
2019-01-20T05:37:40.936Z,92.90
2019-01-20T05:40:17.617Z,91.87
2019-01-20T05:42:46.857Z,92.43
2019-01-20T05:45:21.562Z,91.87
2019-01-20T05:47:49.962Z,90.93
2019-01-20T05:50:18.526Z,90.87
2019-01-20T05:52:47.054Z,92.87
2019-01-20T05:55:16.181Z,91.83
2019-01-20T05:57:44.766Z,82.30
2019-01-20T06:00:27.416Z,89.03
2019-01-20T06:03:02.432Z,83.00
2019-01-20T06:05:31.216Z,82.70
2019-01-20T06:08:02.391Z,81.93
2019-01-20T06:10:31.420Z,83.30
2019-01-20T06:13:00.125Z,84.70
2019-01-20T06:15:30.931Z,85.53
2019-01-20T06:17:59.804Z,84.77
2019-01-20T06:20:28.459Z,83.93
2019-01-20T06:22:57.025Z,96.03
2019-01-20T06:25:25.495Z,88.70
2019-01-20T06:27:57.736Z,85.63
2019-01-20T06:30:30.968Z,80.37
2019-01-20T06:32:59.510Z,80.10
2019-01-20T06:35:28.003Z,75.67
2019-01-20T06:37:56.561Z,72.73
2019-01-20T06:40:25.185Z,74.83
2019-01-20T06:43:01.307Z,66.47
2019-01-20T06:45:24.066Z,60.83
2019-01-20T06:47:52.660Z,57.20
2019-01-20T06:50:21.953Z,60.03
2019-01-20T06:52:51.607Z,61.00
2019-01-20T06:55:21.807Z,57.90
2019-01-20T06:57:50.761Z,57.70
2019-01-20T07:00:21.478Z,59.83
2019-01-20T07:02:50.105Z,56.70
2019-01-20T07:05:19.040Z,56.20
2019-01-20T07:07:47.499Z,58.70
2019-01-20T07:10:17.734Z,55.40
2019-01-20T07:12:46.369Z,57.30
2019-01-20T07:15:17.937Z,53.57
2019-01-20T07:17:46.615Z,59.43
2019-01-20T07:20:15.539Z,57.13
2019-01-20T07:22:44.327Z,59.77
2019-01-20T07:25:12.818Z,55.43
2019-01-20T07:27:41.480Z,56.60
2019-01-20T07:30:13.299Z,58.03
2019-01-20T07:32:44.595Z,57.70
2019-01-20T07:35:16.836Z,55.70
2019-01-20T07:37:58.750Z,56.70
2019-01-20T07:40:30.325Z,54.00
2019-01-20T07:45:44.735Z,56.43
2019-01-20T07:48:13.329Z,57.20
2019-01-20T07:50:43.213Z,52.83
2019-01-20T07:53:11.708Z,53.20
2019-01-20T07:55:40.711Z,55.77
2019-01-20T07:58:09.231Z,57.10
2019-01-20T08:00:37.847Z,57.63
2019-01-20T08:03:06.501Z,58.87
2019-01-20T08:05:35.275Z,59.23
2019-01-20T08:08:04.169Z,69.50
2019-01-20T08:10:32.767Z,57.27
2019-01-20T08:13:01.415Z,60.90
2019-01-20T08:15:29.934Z,60.43
2019-01-20T08:17:58.592Z,59.83
2019-01-20T08:20:27.427Z,62.97
2019-01-20T08:22:55.962Z,61.83
2019-01-20T08:25:24.565Z,59.63
2019-01-20T08:27:53.187Z,62.73
2019-01-20T08:30:23.887Z,60.67
2019-01-20T08:32:52.572Z,61.50
2019-01-20T08:35:21.381Z,59.97
2019-01-20T08:37:50.024Z,63.07
2019-01-20T08:40:24.143Z,61.93
2019-01-20T08:42:52.747Z,61.43
2019-01-20T08:45:24.398Z,60.40
2019-01-20T08:47:54.864Z,59.73
2019-01-20T08:50:25.172Z,64.63
2019-01-20T08:52:53.787Z,61.83
2019-01-20T08:55:22.458Z,61.37
2019-01-20T08:57:51.214Z,60.40
2019-01-20T09:00:19.843Z,60.80
2019-01-20T09:02:48.347Z,60.23
2019-01-20T09:05:17.134Z,58.93
2019-01-20T09:07:45.706Z,59.53
2019-01-20T09:10:17.943Z,60.77
2019-01-20T09:12:48.072Z,59.00
2019-01-20T09:15:16.859Z,58.70
2019-01-20T09:17:46.565Z,59.33
2019-01-20T09:20:15.329Z,62.97
2019-01-20T09:22:43.941Z,61.10
2019-01-20T09:25:14.081Z,58.00
2019-01-20T09:27:42.863Z,57.73
2019-01-20T09:30:20.000Z,58.30
2019-01-20T09:32:53.581Z,57.87
2019-01-20T09:35:22.211Z,58.53
2019-01-20T09:37:50.801Z,54.90
2019-01-20T09:40:19.651Z,57.43
2019-01-20T09:42:48.184Z,57.77
2019-01-20T09:45:27.183Z,56.43
2019-01-20T09:47:58.211Z,57.20
2019-01-20T09:50:27.101Z,54.87
2019-01-20T09:52:55.718Z,58.80
2019-01-20T09:55:26.126Z,57.93
2019-01-20T09:57:55.738Z,61.63
2019-01-20T10:00:35.961Z,58.73
2019-01-20T10:03:08.008Z,58.70
2019-01-20T10:05:39.926Z,53.80
2019-01-20T10:08:08.899Z,55.20
2019-01-20T10:10:37.294Z,52.63
2019-01-20T10:13:06.037Z,54.23
2019-01-20T10:15:34.664Z,50.67
2019-01-20T10:18:03.260Z,53.07
2019-01-20T10:20:33.145Z,55.20
2019-01-20T10:23:02.244Z,53.57
2019-01-20T10:25:30.730Z,46.47
2019-01-20T10:27:59.811Z,49.37
2019-01-20T10:30:30.666Z,52.20
2019-01-20T10:32:59.309Z,48.33
2019-01-20T10:35:35.180Z,51.13
2019-01-20T10:38:08.084Z,71.53
2019-01-20T10:40:36.789Z,51.10
2019-01-20T10:43:05.689Z,52.20
2019-01-20T10:45:34.239Z,50.67
2019-01-20T10:48:02.940Z,50.10
2019-01-20T10:50:31.518Z,51.87
2019-01-20T10:53:00.470Z,48.03
2019-01-20T10:55:30.501Z,46.77
2019-01-20T10:57:59.142Z,45.00
2019-01-20T11:00:51.221Z,42.90
2019-01-20T11:03:19.950Z,41.67
2019-01-20T11:05:49.168Z,39.73
2019-01-20T11:08:17.748Z,39.73
2019-01-20T11:10:46.410Z,40.70
2019-01-20T11:13:15.045Z,39.97
2019-01-20T11:15:45.409Z,40.70
2019-01-20T11:18:18.081Z,39.17
2019-01-20T11:20:44.794Z,41.17
2019-01-20T11:23:16.003Z,42.23
2019-01-20T11:25:44.404Z,42.83
2019-01-20T11:28:14.506Z,45.37
2019-01-20T11:30:43.060Z,46.27
2019-01-20T11:33:11.552Z,46.00
2019-01-20T11:35:40.202Z,45.77
2019-01-20T11:38:15.024Z,48.67
2019-01-20T11:40:44.102Z,44.53
2019-01-20T11:43:13.600Z,46.40
2019-01-20T11:45:43.373Z,46.63
2019-01-20T11:48:14.598Z,47.27
2019-01-20T11:50:44.842Z,48.83
2019-01-20T11:53:13.362Z,52.33
2019-01-20T11:55:41.997Z,49.20
2019-01-20T11:58:15.143Z,50.83
2019-01-20T12:00:47.601Z,50.73
2019-01-20T12:03:16.244Z,51.10
2019-01-20T12:05:45.053Z,49.50
2019-01-20T12:08:13.760Z,50.27
2019-01-20T12:10:42.252Z,50.10
2019-01-20T12:13:12.368Z,50.83
2019-01-20T12:15:40.925Z,52.57
2019-01-20T12:18:09.581Z,49.43
2019-01-20T12:20:38.227Z,48.77
2019-01-20T12:23:07.236Z,48.07
2019-01-20T12:25:35.776Z,45.57
2019-01-20T12:28:04.232Z,41.77
2019-01-20T12:30:35.670Z,37.83
2019-01-20T12:33:04.286Z,38.33
2019-01-20T12:35:32.717Z,36.77
2019-01-20T12:38:03.382Z,35.87
2019-01-20T12:40:35.237Z,37.33
2019-01-20T12:43:03.817Z,35.20
2019-01-20T12:45:33.702Z,35.87
2019-01-20T12:48:02.502Z,30.20
2019-01-20T12:50:31.123Z,36.40
2019-01-20T12:52:59.558Z,41.33
2019-01-20T12:55:28.050Z,31.97
2019-01-20T12:57:57.896Z,30.47
2019-01-20T13:00:26.342Z,32.13
2019-01-20T13:02:54.831Z,31.93
2019-01-20T13:05:23.479Z,31.57
2019-01-20T13:07:52.320Z,30.60
2019-01-20T13:10:21.000Z,30.20
2019-01-20T13:12:49.961Z,31.60
2019-01-20T13:15:20.733Z,32.10
2019-01-20T13:17:49.656Z,32.00
2019-01-20T13:20:20.843Z,36.37
2019-01-20T13:22:49.864Z,33.30
2019-01-20T13:25:21.505Z,37.13
2019-01-20T13:27:49.965Z,36.10
2019-01-20T13:30:20.422Z,38.00
2019-01-20T13:32:49.223Z,37.53
2019-01-20T13:35:19.413Z,37.67
2019-01-20T13:38:00.309Z,35.77
2019-01-20T13:40:51.023Z,38.30
2019-01-20T13:43:19.882Z,38.27
2019-01-20T13:45:49.031Z,38.97
2019-01-20T13:48:17.546Z,40.87
2019-01-20T13:50:46.013Z,41.57
2019-01-20T13:53:19.936Z,41.80
2019-01-20T13:56:01.314Z,42.80
2019-01-20T13:58:30.389Z,41.03
2019-01-20T14:00:59.552Z,40.87
2019-01-20T14:03:28.352Z,39.40
2019-01-20T14:06:07.540Z,40.73
2019-01-20T14:08:44.176Z,35.60
2019-01-20T14:11:15.775Z,34.50
2019-01-20T14:13:48.245Z,36.67
2019-01-20T14:16:18.448Z,35.13
2019-01-20T14:18:47.163Z,34.87
2019-01-20T14:21:18.722Z,35.27
2019-01-20T14:23:47.355Z,35.43
2019-01-20T14:26:16.008Z,33.07
2019-01-20T14:28:44.519Z,32.43
2019-01-20T14:31:13.480Z,31.67
2019-01-20T14:33:54.345Z,32.03
2019-01-20T14:36:24.657Z,31.97
2019-01-20T14:38:55.164Z,30.53
2019-01-20T14:41:26.788Z,30.83
2019-01-20T14:43:55.444Z,30.73
2019-01-20T14:46:28.605Z,28.33
2019-01-20T14:48:57.101Z,28.07
2019-01-20T14:51:25.560Z,28.83
2019-01-20T14:53:54.945Z,28.67
2019-01-20T14:56:23.617Z,28.43
2019-01-20T14:58:52.017Z,30.57
2019-01-20T15:01:20.563Z,29.67
2019-01-20T15:03:49.162Z,29.57
2019-01-20T15:06:17.914Z,32.97
2019-01-20T15:08:46.394Z,31.03
2019-01-20T15:11:14.946Z,29.90
2019-01-20T15:13:43.561Z,30.90
2019-01-20T15:16:12.167Z,30.10
2019-01-20T15:18:40.814Z,30.50
2019-01-20T15:21:09.722Z,27.80
2019-01-20T15:23:40.560Z,30.27
2019-01-20T15:26:09.065Z,30.40
2019-01-20T15:28:37.960Z,30.47
2019-01-20T15:31:06.655Z,30.10
2019-01-20T15:33:35.305Z,30.03
2019-01-20T15:36:03.776Z,29.67
2019-01-20T15:38:32.350Z,30.70
2019-01-20T15:41:00.898Z,31.13
2019-01-20T15:43:29.576Z,30.07
2019-01-20T15:46:00.506Z,30.87
2019-01-20T15:48:28.501Z,31.90
2019-01-20T15:50:57.043Z,31.37
2019-01-20T15:53:25.749Z,31.20
2019-01-20T15:55:58.651Z,31.40
2019-01-20T15:58:30.435Z,33.53
2019-01-20T16:01:02.302Z,33.73
2019-01-20T16:03:31.003Z,33.43
2019-01-20T16:05:59.443Z,34.60
2019-01-20T16:08:27.881Z,35.17
2019-01-20T16:10:56.390Z,34.83
2019-01-20T16:13:24.990Z,33.50
2019-01-20T16:15:53.605Z,35.67
2019-01-20T16:18:22.086Z,35.20
2019-01-20T16:20:51.189Z,35.80
2019-01-20T16:23:19.682Z,34.30
2019-01-20T16:25:51.239Z,36.03
2019-01-20T16:28:19.821Z,35.23
2019-01-20T16:30:48.268Z,34.87
2019-01-20T16:33:16.883Z,35.17
2019-01-20T16:35:45.418Z,34.47
2019-01-20T16:38:14.126Z,34.40
2019-01-20T16:40:46.745Z,35.77
2019-01-20T16:43:18.251Z,33.40
2019-01-20T16:45:46.787Z,34.87
2019-01-20T16:48:15.487Z,34.50
2019-01-20T16:50:44.129Z,34.03
2019-01-20T16:53:15.650Z,34.10
2019-01-20T16:55:47.520Z,31.73
2019-01-20T16:58:16.101Z,33.03
2019-01-20T17:00:44.798Z,32.40
2019-01-20T17:03:13.711Z,33.17
2019-01-20T17:05:42.370Z,34.20
2019-01-20T17:08:13.969Z,32.30
2019-01-20T17:10:46.515Z,30.03
2019-01-20T17:13:15.345Z,29.60
2019-01-20T17:15:43.896Z,28.73
2019-01-20T17:18:18.743Z,26.97
2019-01-20T17:20:46.859Z,25.53
2019-01-20T17:23:15.577Z,26.17
2019-01-20T17:25:44.220Z,26.17
2019-01-20T17:28:12.939Z,28.40
2019-01-20T17:30:51.022Z,26.07
2019-01-20T17:33:19.601Z,26.03
2019-01-20T17:35:48.418Z,26.23
2019-01-20T17:38:18.961Z,27.23
2019-01-20T17:40:47.530Z,27.17
2019-01-20T17:43:16.513Z,27.27
2019-01-20T17:45:53.174Z,27.60
2019-01-20T17:48:21.982Z,29.00
2019-01-20T17:50:53.504Z,27.07
2019-01-20T17:53:22.425Z,27.60
2019-01-20T17:55:56.298Z,26.87
2019-01-20T17:58:24.779Z,27.63
2019-01-20T18:00:57.492Z,26.70
2019-01-20T18:03:32.444Z,28.80
2019-01-20T18:06:01.327Z,29.07
2019-01-20T18:08:37.557Z,27.57
2019-01-20T18:11:13.818Z,25.77
2019-01-20T18:13:42.818Z,27.80
2019-01-20T18:16:16.246Z,27.67
2019-01-20T18:18:45.011Z,26.67
2019-01-20T18:21:15.308Z,27.53
2019-01-20T18:23:44.115Z,27.67
2019-01-20T18:26:15.570Z,29.83
2019-01-20T18:28:47.204Z,26.90
2019-01-20T18:31:15.862Z,28.90
2019-01-20T18:33:44.832Z,28.17
2019-01-20T18:36:13.855Z,29.50
2019-01-20T18:38:44.867Z,28.63
2019-01-20T18:41:13.546Z,29.50
2019-01-20T18:44:00.572Z,27.27
2019-01-20T18:46:40.791Z,26.67
2019-01-20T18:49:09.681Z,28.20
2019-01-20T18:51:40.112Z,27.47
2019-01-20T18:54:10.735Z,29.07
2019-01-20T18:56:39.782Z,27.43
2019-01-20T18:59:11.825Z,28.90
2019-01-20T19:01:46.584Z,27.77
2019-01-20T19:04:19.811Z,30.13
2019-01-20T19:06:49.071Z,29.30
2019-01-20T19:09:17.826Z,28.53
2019-01-20T19:11:48.154Z,30.80
2019-01-20T19:14:17.132Z,32.30
2019-01-20T19:16:47.568Z,29.00
2019-01-20T19:19:17.598Z,29.33
2019-01-20T19:21:46.258Z,30.50
2019-01-20T19:24:16.373Z,31.73
2019-01-20T19:26:46.626Z,30.80
2019-01-20T19:29:16.749Z,32.90
2019-01-20T19:31:46.935Z,33.00
2019-01-20T19:34:19.954Z,34.03
2019-01-20T19:37:00.427Z,32.27
2019-01-20T19:39:26.369Z,34.07
2019-01-20T19:41:55.155Z,36.80
2019-01-20T19:44:28.359Z,37.50
2019-01-20T19:47:06.946Z,38.07
2019-01-20T19:49:43.749Z,38.27
2019-01-20T19:52:12.828Z,38.27
2019-01-20T19:54:41.407Z,38.37
2019-01-20T19:57:13.506Z,38.07
2019-01-20T19:59:42.258Z,39.77
2019-01-20T20:02:10.846Z,38.97
2019-01-20T20:04:42.505Z,41.00
2019-01-20T20:07:17.175Z,42.23
2019-01-20T20:09:47.273Z,44.27
2019-01-20T20:12:17.829Z,43.03
2019-01-20T20:14:46.833Z,43.67
2019-01-20T20:17:27.503Z,46.57
2019-01-20T20:19:59.170Z,44.20
2019-01-20T20:22:27.981Z,47.47
2019-01-20T20:24:56.750Z,46.20
2019-01-20T20:27:25.232Z,48.27
2019-01-20T20:29:54.047Z,50.17
2019-01-20T20:32:22.796Z,48.60
2019-01-20T20:34:55.222Z,46.57
2019-01-20T20:37:25.760Z,48.13
2019-01-20T20:39:54.648Z,49.17
2019-01-20T20:42:26.513Z,46.60
2019-01-20T20:44:57.135Z,46.90
2019-01-20T20:47:25.819Z,48.60
2019-01-20T20:49:54.484Z,51.07
2019-01-20T20:52:23.275Z,55.10
2019-01-20T20:54:52.810Z,48.23
2019-01-20T20:57:34.403Z,51.57
2019-01-20T21:00:00.819Z,53.50
2019-01-20T21:02:32.895Z,56.97
2019-01-20T21:05:01.620Z,51.67
2019-01-20T21:07:31.853Z,54.60
2019-01-20T21:10:02.450Z,51.90
2019-01-20T21:12:31.421Z,51.07
2019-01-20T21:15:03.383Z,54.17
2019-01-20T21:17:31.465Z,53.13
2019-01-20T21:20:02.673Z,51.80
2019-01-20T21:25:23.149Z,51.50
2019-01-20T21:27:53.541Z,45.27
2019-01-20T21:30:28.880Z,51.67
2019-01-20T21:32:58.055Z,49.90
2019-01-20T21:35:26.802Z,46.87
2019-01-20T21:37:55.732Z,48.03
2019-01-20T21:40:24.591Z,51.63
2019-01-20T21:42:57.456Z,50.83
2019-01-20T21:45:27.943Z,48.23
2019-01-20T21:47:56.852Z,51.20
2019-01-20T21:50:28.313Z,50.30
2019-01-20T21:52:57.336Z,49.17
2019-01-20T21:55:25.887Z,50.27
2019-01-20T21:57:54.780Z,47.73
2019-01-20T22:00:28.192Z,50.00
2019-01-20T22:03:00.706Z,51.37
2019-01-20T22:05:30.314Z,49.57
2019-01-20T22:08:00.687Z,49.07
2019-01-20T22:10:29.787Z,52.90
2019-01-20T22:13:01.157Z,48.97
2019-01-20T22:15:32.617Z,49.10
2019-01-20T22:18:04.725Z,50.63
2019-01-20T22:20:33.278Z,49.57
2019-01-20T22:23:10.541Z,52.60
2019-01-20T22:25:46.611Z,51.17
2019-01-20T22:28:15.208Z,50.37
2019-01-20T22:30:43.795Z,48.90
2019-01-20T22:33:12.680Z,56.20
2019-01-20T22:35:41.354Z,51.57
2019-01-20T22:38:10.125Z,53.73
2019-01-20T22:40:38.779Z,50.60
2019-01-20T22:43:07.556Z,50.97
2019-01-20T22:45:36.126Z,51.67
2019-01-20T22:48:04.989Z,51.33
2019-01-20T22:50:33.543Z,49.43
2019-01-20T22:53:02.519Z,50.63
2019-01-20T22:55:31.390Z,50.67
2019-01-20T22:57:59.835Z,49.10
2019-01-20T23:00:50.851Z,52.53
2019-01-20T23:03:19.523Z,49.70
2019-01-20T23:05:49.303Z,52.17
2019-01-20T23:08:18.514Z,51.77
2019-01-20T23:10:47.269Z,50.00
2019-01-20T23:13:16.035Z,48.13
2019-01-20T23:15:46.991Z,48.63
2019-01-20T23:18:15.791Z,48.00
2019-01-20T23:20:44.393Z,48.80
2019-01-20T23:23:13.095Z,48.20
2019-01-20T23:25:41.775Z,46.20
2019-01-20T23:28:10.396Z,46.50
2019-01-20T23:30:39.141Z,48.23
2019-01-20T23:33:07.880Z,47.43
2019-01-20T23:35:36.519Z,46.10
2019-01-20T23:38:05.201Z,45.23
2019-01-20T23:40:33.743Z,50.37
2019-01-20T23:43:02.219Z,45.37
2019-01-20T23:45:30.765Z,48.23
2019-01-20T23:47:59.382Z,48.00
2019-01-20T23:50:28.203Z,48.97
2019-01-20T23:52:56.833Z,43.33
2019-01-20T23:55:25.639Z,46.67
2019-01-20T23:57:54.401Z,45.73
